createdAt,value
2023-03-26T00:02:06.950Z,96788.34
2023-03-26T00:04:33.323Z,96785.69
2023-03-26T00:06:59.647Z,96784.09
2023-03-26T00:09:26.283Z,96784.38
2023-03-26T00:11:52.657Z,96790.72
2023-03-26T00:14:18.950Z,96800.06
2023-03-26T00:16:45.314Z,96801.91
2023-03-26T00:19:11.689Z,96803.75
2023-03-26T00:21:37.970Z,96807.47
2023-03-26T00:24:04.480Z,96801.63
2023-03-26T00:26:30.949Z,96793.09
2023-03-26T00:28:57.287Z,96786.19
2023-03-26T00:31:23.667Z,96792.81
2023-03-26T00:33:50.008Z,96781.63
2023-03-26T00:36:16.346Z,96789.88
2023-03-26T00:38:42.728Z,96787.75
2023-03-26T00:41:09.035Z,96791.69
2023-03-26T00:43:35.432Z,96790.38
2023-03-26T00:46:01.860Z,96789.03
2023-03-26T00:48:41.891Z,96793.00
2023-03-26T00:51:11.136Z,96790.59
2023-03-26T00:53:37.495Z,96799.09
2023-03-26T00:56:03.890Z,96788.72
2023-03-26T00:58:30.369Z,96801.47
2023-03-26T01:00:56.729Z,96792.69
2023-03-26T01:03:27.703Z,96794.00
2023-03-26T01:05:54.865Z,96800.34
2023-03-26T01:08:21.262Z,96797.16
2023-03-26T01:10:47.603Z,96799.00
2023-03-26T01:13:14.043Z,96793.16
2023-03-26T01:15:40.368Z,96796.06
2023-03-26T01:18:06.618Z,96797.38
2023-03-26T01:20:32.911Z,96793.13
2023-03-26T01:22:59.176Z,96789.09
2023-03-26T01:25:25.467Z,96794.13
2023-03-26T01:27:51.892Z,96796.00
2023-03-26T01:30:18.244Z,96806.09
2023-03-26T01:32:44.630Z,96794.91
2023-03-26T01:35:11.101Z,96800.50
2023-03-26T01:37:37.351Z,96794.63
2023-03-26T01:40:03.766Z,96804.44
2023-03-26T01:42:30.240Z,96794.34
2023-03-26T01:44:56.583Z,96792.75
2023-03-26T01:47:23.062Z,96786.88
2023-03-26T01:49:49.508Z,96789.00
2023-03-26T01:52:16.000Z,96796.16
2023-03-26T01:54:42.904Z,96791.34
2023-03-26T01:57:09.246Z,96791.63
2023-03-26T01:59:35.703Z,96792.66
2023-03-26T02:02:02.250Z,96803.28
2023-03-26T02:04:28.598Z,96786.00
2023-03-26T02:06:54.947Z,96793.19
2023-03-26T02:09:21.169Z,96795.28
2023-03-26T02:11:47.534Z,96794.50
2023-03-26T02:14:13.836Z,96783.59
2023-03-26T02:16:40.269Z,96795.50
2023-03-26T02:19:06.635Z,96789.66
2023-03-26T02:21:32.937Z,96787.78
2023-03-26T02:23:59.715Z,96791.50
2023-03-26T02:26:26.067Z,96784.59
2023-03-26T02:28:52.476Z,96775.03
2023-03-26T02:31:19.060Z,96777.69
2023-03-26T02:33:45.480Z,96772.38
2023-03-26T02:36:11.898Z,96778.72
2023-03-26T02:38:38.584Z,96769.16
2023-03-26T02:41:05.010Z,96770.47
2023-03-26T02:43:31.457Z,96771.53
2023-03-26T02:45:58.324Z,96773.63
2023-03-26T02:48:24.969Z,96768.31
2023-03-26T02:50:51.301Z,96767.78
2023-03-26T02:53:17.729Z,96766.97
2023-03-26T02:55:44.095Z,96764.56
2023-03-26T02:58:10.417Z,96774.38
2023-03-26T03:00:36.856Z,96764.28
2023-03-26T03:03:03.569Z,96767.19
2023-03-26T03:05:29.913Z,96768.25
2023-03-26T03:07:56.246Z,96762.41
2023-03-26T03:10:22.608Z,96761.59
2023-03-26T03:12:49.078Z,96759.19
2023-03-26T03:15:15.390Z,96751.22
2023-03-26T03:17:41.760Z,96754.13
2023-03-26T03:20:08.161Z,96757.31
2023-03-26T03:22:34.528Z,96764.72
2023-03-26T03:25:01.037Z,96751.69
2023-03-26T03:27:29.979Z,96751.94
2023-03-26T03:29:56.370Z,96758.31
2023-03-26T03:32:22.976Z,96759.38
2023-03-26T03:34:49.351Z,96759.59
2023-03-26T03:37:15.896Z,96751.09
2023-03-26T03:39:42.212Z,96752.16
2023-03-26T03:42:08.564Z,96748.69
2023-03-26T03:44:35.079Z,96750.31
2023-03-26T03:47:01.578Z,96748.69
2023-03-26T03:49:28.134Z,96745.25
2023-03-26T03:51:54.453Z,96742.59
2023-03-26T03:54:20.820Z,96741.78
2023-03-26T03:56:47.253Z,96742.84
2023-03-26T03:59:13.634Z,96743.88
2023-03-26T04:01:39.967Z,96737.00
2023-03-26T04:04:06.384Z,96739.09
2023-03-26T04:06:32.933Z,96737.47
2023-03-26T04:09:01.336Z,96737.47
2023-03-26T04:11:27.707Z,96743.03
2023-03-26T04:13:54.073Z,96728.97
2023-03-26T04:16:20.451Z,96739.59
2023-03-26T04:18:46.932Z,96739.06
2023-03-26T04:21:13.265Z,96741.72
2023-03-26T04:23:39.565Z,96732.13
2023-03-26T04:26:05.898Z,96726.25
2023-03-26T04:28:32.231Z,96729.16
2023-03-26T04:30:58.574Z,96717.75
2023-03-26T04:33:25.050Z,96719.03
2023-03-26T04:35:51.438Z,96716.63
2023-03-26T04:38:17.884Z,96708.13
2023-03-26T04:40:44.280Z,96711.84
2023-03-26T04:43:10.720Z,96700.69
2023-03-26T04:45:37.239Z,96711.56
2023-03-26T04:48:03.975Z,96707.28
2023-03-26T04:50:30.451Z,96696.91
2023-03-26T04:52:56.743Z,96692.69
2023-03-26T04:55:23.116Z,96696.38
2023-03-26T04:57:49.438Z,96686.00
2023-03-26T05:00:15.764Z,96690.50
2023-03-26T05:02:42.486Z,96695.03
2023-03-26T05:05:09.019Z,96696.88
2023-03-26T05:07:35.963Z,96692.63
2023-03-26T05:10:02.382Z,96681.22
2023-03-26T05:12:28.931Z,96675.09
2023-03-26T05:14:55.216Z,96668.47
2023-03-26T05:17:21.665Z,96668.47
2023-03-26T05:19:48.007Z,96672.16
2023-03-26T05:22:14.569Z,96658.34
2023-03-26T05:24:41.564Z,96667.34
2023-03-26T05:27:07.986Z,96658.59
2023-03-26T05:29:34.985Z,96663.91
2023-03-26T05:32:01.345Z,96650.03
2023-03-26T05:34:27.768Z,96664.72
2023-03-26T05:36:54.607Z,96660.22
2023-03-26T05:39:21.036Z,96653.84
2023-03-26T05:41:47.483Z,96649.59
2023-03-26T05:44:13.835Z,96655.94
2023-03-26T05:46:40.135Z,96645.31
2023-03-26T05:49:07.156Z,96647.97
2023-03-26T05:51:33.545Z,96656.81
2023-03-26T05:53:59.884Z,96656.25
2023-03-26T05:56:26.225Z,96651.69
2023-03-26T05:58:52.753Z,96653.81
2023-03-26T06:01:19.165Z,96647.94
2023-03-26T06:03:45.543Z,96642.91
2023-03-26T06:06:12.041Z,96645.00
2023-03-26T06:08:38.338Z,96640.19
2023-03-26T06:11:05.376Z,96640.47
2023-03-26T06:13:31.704Z,96635.41
2023-03-26T06:15:58.107Z,96632.22
2023-03-26T06:18:24.429Z,96632.97
2023-03-26T06:20:50.814Z,96629.81
2023-03-26T06:23:17.149Z,96627.38
2023-03-26T06:25:43.586Z,96630.28
2023-03-26T06:28:10.081Z,96627.88
2023-03-26T06:30:36.584Z,96626.06
2023-03-26T06:33:03.020Z,96615.44
2023-03-26T06:35:34.719Z,96629.81
2023-03-26T06:38:01.038Z,96616.28
2023-03-26T06:40:27.357Z,96620.28
2023-03-26T06:43:08.818Z,96615.78
2023-03-26T06:45:36.842Z,96629.03
2023-03-26T06:48:03.496Z,96628.50
2023-03-26T06:50:30.376Z,96630.34
2023-03-26T06:52:56.656Z,96638.00
2023-03-26T06:55:22.976Z,96634.81
2023-03-26T06:57:49.305Z,96628.69
2023-03-26T07:00:15.748Z,96632.94
2023-03-26T07:05:32.280Z,96641.13
2023-03-26T07:08:00.125Z,96630.50
2023-03-26T07:10:26.400Z,96643.41
2023-03-26T07:12:52.701Z,96638.75
2023-03-26T07:15:19.304Z,96638.56
2023-03-26T07:17:45.659Z,96639.47
2023-03-26T07:20:12.106Z,96638.69
2023-03-26T07:22:38.428Z,96635.84
2023-03-26T07:25:04.762Z,96634.00
2023-03-26T07:27:31.064Z,96628.72
2023-03-26T07:29:57.312Z,96621.28
2023-03-26T07:32:23.643Z,96629.00
2023-03-26T07:37:53.889Z,96626.91
2023-03-26T07:40:23.995Z,96623.41
2023-03-26T07:42:50.407Z,96631.91
2023-03-26T07:45:16.728Z,96623.16
2023-03-26T07:47:43.110Z,96619.13
2023-03-26T07:50:09.512Z,96615.91
2023-03-26T07:52:35.863Z,96622.81
2023-03-26T07:55:02.354Z,96611.03
2023-03-26T07:57:28.819Z,96612.88
2023-03-26T07:59:55.150Z,96607.72
2023-03-26T08:02:21.479Z,96599.19
2023-03-26T08:04:48.120Z,96599.16
2023-03-26T08:07:15.001Z,96592.72
2023-03-26T08:09:41.299Z,96593.25
2023-03-26T08:12:07.724Z,96595.13
2023-03-26T08:14:34.141Z,96598.06
2023-03-26T08:17:00.983Z,96593.25
2023-03-26T08:19:27.944Z,96598.31
2023-03-26T08:21:54.242Z,96591.63
2023-03-26T08:24:20.569Z,96601.19
2023-03-26T08:26:46.923Z,96605.38
2023-03-26T08:29:13.198Z,96601.56
2023-03-26T08:31:39.612Z,96600.69
2023-03-26T08:34:06.062Z,96597.09
2023-03-26T08:36:32.361Z,96593.31
2023-03-26T08:38:58.714Z,96587.19
2023-03-26T08:41:25.084Z,96578.38
2023-03-26T08:43:52.025Z,96581.03
2023-03-26T08:46:19.765Z,96574.31
2023-03-26T08:48:46.079Z,96575.84
2023-03-26T08:51:12.380Z,96569.72
2023-03-26T08:53:38.734Z,96568.84
2023-03-26T08:56:06.110Z,96560.56
2023-03-26T08:58:32.601Z,96557.38
2023-03-26T09:00:59.184Z,96553.97
2023-03-26T09:03:26.124Z,96556.38
2023-03-26T09:05:54.087Z,96547.28
2023-03-26T09:08:20.364Z,96543.78
2023-03-26T09:10:46.664Z,96539.84
2023-03-26T09:13:13.413Z,96541.69
2023-03-26T09:15:39.724Z,96532.09
2023-03-26T09:18:06.100Z,96537.16
2023-03-26T09:20:32.610Z,96537.94
2023-03-26T09:22:58.932Z,96528.06
2023-03-26T09:25:25.750Z,96524.31
2023-03-26T09:27:52.259Z,96534.47
2023-03-26T09:30:18.703Z,96516.56
2023-03-26T09:32:45.293Z,96520.81
2023-03-26T09:35:13.318Z,96522.69
2023-03-26T09:37:56.105Z,96521.63
2023-03-26T09:40:24.797Z,96515.19
2023-03-26T09:42:51.181Z,96516.81
2023-03-26T09:45:17.566Z,96513.63
2023-03-26T09:47:44.198Z,96509.38
2023-03-26T09:50:12.476Z,96503.50
2023-03-26T09:52:45.624Z,96511.75
2023-03-26T09:55:12.002Z,96505.34
2023-03-26T09:57:38.464Z,96508.56
2023-03-26T10:00:04.920Z,96502.13
2023-03-26T10:02:45.849Z,96508.28
2023-03-26T10:05:13.505Z,96505.31
2023-03-26T10:07:39.780Z,96507.19
2023-03-26T10:10:06.088Z,96503.47
2023-03-26T10:12:32.391Z,96502.66
2023-03-26T10:14:58.752Z,96499.19
2023-03-26T10:17:25.282Z,96492.78
2023-03-26T10:22:35.628Z,96493.53
2023-03-26T10:25:01.986Z,96498.13
2023-03-26T10:27:28.326Z,96490.09
2023-03-26T10:32:39.962Z,96480.19
2023-03-26T10:35:06.885Z,96486.34
2023-03-26T10:37:33.260Z,96478.31
2023-03-26T10:39:59.566Z,96479.91
2023-03-26T10:42:25.974Z,96479.91
2023-03-26T10:44:52.304Z,96476.19
2023-03-26T10:47:18.595Z,96478.84
2023-03-26T10:49:45.101Z,96479.63
2023-03-26T10:52:11.400Z,96482.81
2023-03-26T10:54:37.795Z,96477.47
2023-03-26T10:57:04.277Z,96479.34
2023-03-26T10:59:30.604Z,96487.91
2023-03-26T11:01:58.944Z,96492.50
2023-03-26T11:04:25.483Z,96490.88
2023-03-26T11:06:52.102Z,96498.88
2023-03-26T11:09:19.984Z,96497.31
2023-03-26T11:11:46.318Z,96496.50
2023-03-26T11:14:16.822Z,96491.97
2023-03-26T11:16:48.013Z,96487.44
2023-03-26T11:19:14.389Z,96489.81
2023-03-26T11:21:40.710Z,96494.34
2023-03-26T11:24:07.083Z,96490.88
2023-03-26T11:26:33.427Z,96494.34
2023-03-26T11:29:03.756Z,96490.59
2023-03-26T11:31:32.975Z,96494.59
2023-03-26T11:33:59.346Z,96495.38
2023-03-26T11:36:25.702Z,96486.28
2023-03-26T11:38:52.270Z,96482.81
2023-03-26T11:41:22.470Z,96489.75
2023-03-26T11:43:49.645Z,96483.59
2023-03-26T11:46:15.982Z,96483.59
2023-03-26T11:48:42.369Z,96477.47
2023-03-26T11:51:08.803Z,96480.94
2023-03-26T11:53:35.492Z,96487.84
2023-03-26T11:56:02.418Z,96481.75
2023-03-26T11:58:28.783Z,96480.66
2023-03-26T12:00:55.365Z,96483.31
2023-03-26T12:03:21.774Z,96480.38
2023-03-26T12:05:48.156Z,96482.25
2023-03-26T12:08:20.377Z,96477.69
2023-03-26T12:10:49.788Z,96473.44
2023-03-26T12:13:16.232Z,96470.78
2023-03-26T12:15:42.641Z,96464.63
2023-03-26T12:18:09.311Z,96466.50
2023-03-26T12:20:35.835Z,96466.50
2023-03-26T12:23:02.145Z,96466.50
2023-03-26T12:25:30.396Z,96461.16
2023-03-26T12:27:56.688Z,96458.22
2023-03-26T12:30:23.032Z,96455.81
2023-03-26T12:32:49.307Z,96460.09
2023-03-26T12:35:19.621Z,96450.47
2023-03-26T12:37:45.904Z,96455.81
2023-03-26T12:40:15.154Z,96454.22
2023-03-26T12:44:49.933Z,96455.81
2023-03-26T12:45:30.706Z,96444.63
2023-03-26T12:48:04.349Z,96448.09
2023-03-26T12:50:34.564Z,96445.69
2023-03-26T12:53:01.835Z,96445.69
2023-03-26T12:55:28.261Z,96448.38
2023-03-26T12:57:54.574Z,96444.13
2023-03-26T13:00:20.971Z,96436.09
2023-03-26T13:02:47.532Z,96435.59
2023-03-26T13:05:13.909Z,96433.72
2023-03-26T13:07:40.254Z,96427.59
2023-03-26T13:10:06.603Z,96428.69
2023-03-26T13:12:33.033Z,96427.06
2023-03-26T13:14:59.392Z,96426.56
2023-03-26T13:17:25.678Z,96418.84
2023-03-26T13:19:52.046Z,96417.50
2023-03-26T13:22:18.511Z,96416.72
2023-03-26T13:24:44.797Z,96412.44
2023-03-26T13:27:11.089Z,96411.66
2023-03-26T13:29:37.464Z,96413.22
2023-03-26T13:32:03.829Z,96409.50
2023-03-26T13:34:31.356Z,96414.56
2023-03-26T13:36:57.689Z,96402.00
2023-03-26T13:39:24.462Z,96407.09
2023-03-26T13:41:50.775Z,96400.66
2023-03-26T13:44:17.090Z,96400.38
2023-03-26T13:46:43.585Z,96396.63
2023-03-26T13:49:09.949Z,96400.88
2023-03-26T13:51:36.258Z,96398.22
2023-03-26T13:54:02.540Z,96389.09
2023-03-26T13:56:28.857Z,96383.75
2023-03-26T13:58:55.167Z,96385.38
2023-03-26T14:01:21.556Z,96386.13
2023-03-26T14:03:48.112Z,96393.88
2023-03-26T14:06:14.453Z,96384.78
2023-03-26T14:08:40.883Z,96375.19
2023-03-26T14:11:07.218Z,96382.13
2023-03-26T14:13:33.498Z,96378.63
2023-03-26T14:15:59.853Z,96370.91
2023-03-26T14:18:28.344Z,96383.47
2023-03-26T14:20:54.870Z,96373.88
2023-03-26T14:23:21.341Z,96369.63
2023-03-26T14:25:47.702Z,96371.50
2023-03-26T14:28:14.054Z,96365.34
2023-03-26T14:30:40.349Z,96364.59
2023-03-26T14:33:06.761Z,96364.59
2023-03-26T14:35:33.349Z,96362.97
2023-03-26T14:37:59.678Z,96359.25
2023-03-26T14:40:26.076Z,96361.41
2023-03-26T14:42:54.461Z,96356.06
2023-03-26T14:45:22.540Z,96354.44
2023-03-26T14:47:49.029Z,96357.91
2023-03-26T14:50:18.330Z,96351.78
2023-03-26T14:52:44.840Z,96343.00
2023-03-26T14:55:11.229Z,96346.44
2023-03-26T14:57:41.489Z,96345.66
2023-03-26T15:00:07.773Z,96341.09
2023-03-26T15:02:34.217Z,96343.00
2023-03-26T15:05:00.794Z,96343.78
2023-03-26T15:07:27.217Z,96339.53
2023-03-26T15:09:53.614Z,96338.44
2023-03-26T15:12:21.343Z,96340.59
2023-03-26T15:14:51.748Z,96342.19
2023-03-26T15:17:18.204Z,96343.25
2023-03-26T15:19:47.351Z,96342.19
2023-03-26T15:22:14.266Z,96338.44
2023-03-26T15:24:43.484Z,96349.63
2023-03-26T15:27:09.826Z,96350.94
2023-03-26T15:29:36.148Z,96346.38
2023-03-26T15:32:02.586Z,96351.16
2023-03-26T15:34:28.888Z,96352.72
2023-03-26T15:36:55.325Z,96345.22
2023-03-26T15:39:21.650Z,96349.19
2023-03-26T15:41:48.009Z,96352.38
2023-03-26T15:44:22.950Z,96355.84
2023-03-26T15:46:51.674Z,96355.25
2023-03-26T15:49:18.189Z,96356.59
2023-03-26T15:51:47.002Z,96358.97
2023-03-26T15:54:14.254Z,96362.13
2023-03-26T15:56:40.728Z,96352.25
2023-03-26T15:59:07.252Z,96354.63
2023-03-26T16:01:33.638Z,96357.00
2023-03-26T16:03:59.990Z,96354.06
2023-03-26T16:06:26.351Z,96361.78
2023-03-26T16:08:52.651Z,96363.38
2023-03-26T16:11:19.021Z,96359.63
2023-03-26T16:13:45.357Z,96362.00
2023-03-26T16:16:11.770Z,96365.97
2023-03-26T16:18:38.119Z,96363.00
2023-03-26T16:21:04.561Z,96366.19
2023-03-26T16:23:30.889Z,96368.56
2023-03-26T16:25:57.292Z,96369.34
2023-03-26T16:28:23.677Z,96377.09
2023-03-26T16:30:50.256Z,96370.97
2023-03-26T16:33:16.977Z,96376.31
2023-03-26T16:35:43.612Z,96375.78
2023-03-26T16:38:10.038Z,96378.47
2023-03-26T16:40:36.393Z,96379.25
2023-03-26T16:43:02.724Z,96380.03
2023-03-26T16:45:29.175Z,96383.00
2023-03-26T16:47:55.605Z,96388.34
2023-03-26T16:50:22.072Z,96391.03
2023-03-26T16:52:48.670Z,96392.13
2023-03-26T16:55:15.016Z,96389.72
2023-03-26T16:57:41.332Z,96399.63
2023-03-26T17:00:08.289Z,96395.38
2023-03-26T17:02:37.955Z,96400.97
2023-03-26T17:05:04.412Z,96409.81
2023-03-26T17:07:30.696Z,96413.84
2023-03-26T17:09:57.073Z,96406.91
2023-03-26T17:12:23.465Z,96408.28
2023-03-26T17:14:50.195Z,96411.25
2023-03-26T17:17:18.731Z,96411.50
2023-03-26T17:19:45.120Z,96425.16
2023-03-26T17:22:11.503Z,96413.97
2023-03-26T17:24:37.774Z,96417.72
2023-03-26T17:27:04.162Z,96417.50
2023-03-26T17:29:31.729Z,96423.13
2023-03-26T17:32:03.393Z,96424.50
2023-03-26T17:34:29.953Z,96429.31
2023-03-26T17:36:56.294Z,96428.84
2023-03-26T17:39:22.638Z,96434.44
2023-03-26T17:41:49.331Z,96427.00
2023-03-26T17:44:15.830Z,96440.66
2023-03-26T17:46:42.186Z,96436.69
2023-03-26T17:49:08.516Z,96442.28
2023-03-26T17:51:34.867Z,96446.84
2023-03-26T17:54:01.228Z,96450.59
2023-03-26T17:56:27.817Z,96453.25
2023-03-26T17:58:54.147Z,96453.53
2023-03-26T18:01:20.560Z,96457.03
2023-03-26T18:03:46.940Z,96462.38
2023-03-26T18:06:13.255Z,96465.84
2023-03-26T18:08:39.730Z,96470.38
2023-03-26T18:11:06.077Z,96481.56
2023-03-26T18:13:32.397Z,96485.81
2023-03-26T18:15:59.029Z,96495.44
2023-03-26T18:18:25.865Z,96490.59
2023-03-26T18:20:52.290Z,96484.97
2023-03-26T18:23:18.676Z,96493.78
2023-03-26T18:25:45.084Z,96500.72
2023-03-26T18:28:11.510Z,96494.28
2023-03-26T18:30:37.869Z,96504.69
2023-03-26T18:33:04.224Z,96496.69
2023-03-26T18:35:30.547Z,96511.63
2023-03-26T18:37:56.905Z,96506.28
2023-03-26T18:40:23.211Z,96511.63
2023-03-26T18:42:49.618Z,96510.84
2023-03-26T18:45:15.994Z,96512.69
2023-03-26T18:47:42.402Z,96515.38
2023-03-26T18:50:08.748Z,96513.78
2023-03-26T18:52:35.051Z,96520.72
2023-03-26T18:55:01.414Z,96523.69
2023-03-26T18:57:27.852Z,96527.44
2023-03-26T18:59:54.410Z,96531.97
2023-03-26T19:02:21.050Z,96525.03
2023-03-26T19:04:50.870Z,96527.97
2023-03-26T19:07:17.353Z,96533.31
2023-03-26T19:09:43.624Z,96537.09
2023-03-26T19:12:10.012Z,96541.91
2023-03-26T19:14:36.336Z,96546.72
2023-03-26T19:17:02.745Z,96547.81
2023-03-26T19:19:29.244Z,96546.22
2023-03-26T19:21:56.418Z,96551.81
2023-03-26T19:24:24.307Z,96549.41
2023-03-26T19:26:50.985Z,96554.25
2023-03-26T19:29:17.434Z,96556.13
2023-03-26T19:31:43.757Z,96563.63
2023-03-26T19:34:10.030Z,96561.25
2023-03-26T19:36:36.628Z,96562.31
2023-03-26T19:39:02.996Z,96561.78
2023-03-26T19:41:29.301Z,96563.94
2023-03-26T19:43:55.891Z,96570.38
2023-03-26T19:46:22.545Z,96568.78
2023-03-26T19:48:49.097Z,96572.78
2023-03-26T19:51:15.530Z,96580.28
2023-03-26T19:53:41.864Z,96579.75
2023-03-26T19:56:08.812Z,96586.19
2023-03-26T19:58:35.355Z,96588.34
2023-03-26T20:01:01.831Z,96596.63
2023-03-26T20:03:28.318Z,96592.38
2023-03-26T20:05:54.907Z,96591.84
2023-03-26T20:08:21.280Z,96599.34
2023-03-26T20:10:47.675Z,96602.28
2023-03-26T20:13:14.072Z,96601.47
2023-03-26T20:15:40.428Z,96603.34
2023-03-26T20:18:06.788Z,96612.16
2023-03-26T20:20:33.163Z,96611.88
2023-03-26T20:22:59.526Z,96622.28
2023-03-26T20:25:26.779Z,96627.06
2023-03-26T20:27:55.132Z,96628.38
2023-03-26T20:30:36.963Z,96635.81
2023-03-26T20:33:12.028Z,96630.72
2023-03-26T20:35:40.064Z,96641.94
2023-03-26T20:38:06.474Z,96645.66
2023-03-26T20:40:32.883Z,96644.56
2023-03-26T20:42:59.502Z,96646.94
2023-03-26T20:45:25.823Z,96659.25
2023-03-26T20:47:52.603Z,96653.63
2023-03-26T20:50:19.172Z,96662.72
2023-03-26T20:52:45.540Z,96655.47
2023-03-26T20:55:11.863Z,96660.03
2023-03-26T20:57:38.317Z,96666.16
2023-03-26T21:00:04.637Z,96669.09
2023-03-26T21:02:31.007Z,96678.97
2023-03-26T21:04:57.379Z,96682.22
2023-03-26T21:07:23.729Z,96677.16
2023-03-26T21:09:50.064Z,96673.69
2023-03-26T21:12:16.389Z,96676.63
2023-03-26T21:14:42.673Z,96689.97
2023-03-26T21:17:09.078Z,96686.00
2023-03-26T21:19:35.432Z,96699.63
2023-03-26T21:22:01.786Z,96698.03
2023-03-26T21:24:28.074Z,96704.47
2023-03-26T21:26:54.358Z,96718.09
2023-03-26T21:29:21.123Z,96719.16
2023-03-26T21:31:47.485Z,96724.75
2023-03-26T21:34:13.857Z,96723.19
2023-03-26T21:36:40.326Z,96726.09
2023-03-26T21:39:07.403Z,96729.03
2023-03-26T21:41:33.885Z,96736.53
2023-03-26T21:44:00.303Z,96733.34
2023-03-26T21:46:26.716Z,96734.41
2023-03-26T21:48:54.294Z,96740.84
2023-03-26T21:51:21.007Z,96741.38
2023-03-26T21:53:47.366Z,96755.00
2023-03-26T21:56:13.747Z,96761.41
2023-03-26T21:58:40.086Z,96767.03
2023-03-26T22:01:06.817Z,96766.50
2023-03-26T22:03:33.229Z,96767.56
2023-03-26T22:05:59.949Z,96780.41
2023-03-26T22:08:26.740Z,96777.19
2023-03-26T22:10:53.305Z,96779.34
2023-03-26T22:13:20.905Z,96785.22
2023-03-26T22:15:47.560Z,96790.31
2023-03-26T22:18:14.114Z,96789.81
2023-03-26T22:20:40.550Z,96791.19
2023-03-26T22:23:07.019Z,96792.50
2023-03-26T22:25:33.598Z,96796.25
2023-03-26T22:28:00.029Z,96801.59
2023-03-26T22:30:26.369Z,96804.00
2023-03-26T22:32:52.956Z,96808.28
2023-03-26T22:35:19.431Z,96808.81
2023-03-26T22:37:45.828Z,96806.66
2023-03-26T22:40:12.194Z,96818.38
2023-03-26T22:42:38.573Z,96814.66
2023-03-26T22:45:05.043Z,96823.94
2023-03-26T22:47:31.590Z,96821.50
2023-03-26T22:49:58.000Z,96835.88
2023-03-26T22:52:24.331Z,96840.63
2023-03-26T22:54:50.686Z,96837.44
2023-03-26T22:57:17.182Z,96849.13
2023-03-26T22:59:43.557Z,96841.38
2023-03-26T23:02:10.029Z,96851.22
2023-03-26T23:04:36.549Z,96846.91
2023-03-26T23:07:02.925Z,96854.88
2023-03-26T23:09:29.285Z,96856.97
2023-03-26T23:11:55.797Z,96856.16
2023-03-26T23:14:22.167Z,96858.78
2023-03-26T23:16:48.496Z,96873.91
2023-03-26T23:19:14.833Z,96867.53
2023-03-26T23:21:41.185Z,96873.84
2023-03-26T23:24:07.497Z,96886.31
2023-03-26T23:26:43.924Z,96888.16
2023-03-26T23:29:15.419Z,96897.69
2023-03-26T23:31:41.912Z,96902.94
2023-03-26T23:34:08.422Z,96911.66
2023-03-26T23:36:34.715Z,96912.44
2023-03-26T23:39:01.038Z,96918.53
2023-03-26T23:41:27.383Z,96915.03
2023-03-26T23:43:55.852Z,96924.56
2023-03-26T23:46:22.707Z,96926.91
2023-03-26T23:48:49.166Z,96931.13
2023-03-26T23:51:15.644Z,96931.91
2023-03-26T23:53:41.922Z,96936.09
2023-03-26T23:56:08.283Z,96937.69
2023-03-26T23:58:34.706Z,96945.56
